Time;durP1;ratioP1;P1;durP2;ratioP2;P2;SDS_P1;SDS_P2;PMS_P1;PMS_P2;Temp;Humidity;BMP_temperature;BMP_pressure;BME280_temperature;BME280_humidity;BME280_pressure;Samples;Min_cycle;Max_cycle;Signal;HPM_P1;HPM_P2
2022/12/16 00:01:05;;;;;;;23.40;13.75;;;-0.60;99.90;;;;;;5027048;28;20099;-35
2022/12/16 00:03:30;;;;;;;30.67;16.73;;;-0.60;99.90;;;;;;5029482;28;20037;-38
2022/12/16 00:05:56;;;;;;;26.73;15.98;;;-0.60;99.90;;;;;;5034487;28;20025;-39
2022/12/16 00:08:22;;;;;;;27.10;14.13;;;-0.60;99.90;;;;;;5034001;28;20095;-34
2022/12/16 00:10:53;;;;;;;27.77;15.82;;;-0.60;99.90;;;;;;5047450;28;20125;-36
2022/12/16 00:13:19;;;;;;;30.83;15.43;;;-0.60;99.90;;;;;;5030610;28;20037;-35
2022/12/16 00:15:45;;;;;;;34.13;16.98;;;-0.60;99.90;;;;;;5041043;28;20060;-35
2022/12/16 00:18:12;;;;;;;31.38;16.27;;;-0.50;99.90;;;;;;5046397;28;20053;-35
2022/12/16 00:20:44;;;;;;;28.55;13.98;;;-0.50;99.90;;;;;;5038331;28;20072;-36
2022/12/16 00:23:09;;;;;;;25.27;14.30;;;-0.50;99.90;;;;;;5041149;28;20033;-35
2022/12/16 00:25:35;;;;;;;27.25;15.27;;;-0.50;99.90;;;;;;5045396;28;20293;-35
2022/12/16 00:28:00;;;;;;;22.63;11.88;;;-0.50;99.90;;;;;;5047010;28;20120;-35
2022/12/16 00:30:26;;;;;;;26.00;13.45;;;-0.40;99.90;;;;;;5038966;28;20124;-35
2022/12/16 00:32:52;;;;;;;25.48;13.07;;;-0.40;99.90;;;;;;5035155;28;20080;-36
2022/12/16 00:35:17;;;;;;;29.48;15.57;;;-0.40;99.90;;;;;;5040171;28;20041;-37
2022/12/16 00:37:45;;;;;;;28.50;15.65;;;-0.40;99.90;;;;;;5026619;28;20040;-37
2022/12/16 00:40:11;;;;;;;27.08;15.38;;;-0.40;99.90;;;;;;5036017;28;20049;-35
2022/12/16 00:42:36;;;;;;;36.75;17.77;;;-0.30;99.90;;;;;;5045206;28;20124;-35
2022/12/16 00:45:03;;;;;;;30.23;15.05;;;-0.30;99.90;;;;;;5035758;28;20147;-35
2022/12/16 00:47:29;;;;;;;32.63;17.33;;;-0.30;99.90;;;;;;5041387;28;20041;-36
2022/12/16 00:49:55;;;;;;;26.58;14.82;;;-0.30;99.90;;;;;;5034450;28;20282;-36
2022/12/16 00:52:20;;;;;;;28.88;15.50;;;-0.30;99.90;;;;;;5047058;28;20056;-36
2022/12/16 00:54:46;;;;;;;32.53;18.55;;;-0.20;99.90;;;;;;5028954;28;20047;-37
2022/12/16 00:57:12;;;;;;;37.83;18.50;;;-0.20;99.90;;;;;;5028166;28;20045;-37
2022/12/16 00:59:37;;;;;;;31.23;18.02;;;-0.20;99.90;;;;;;5041656;28;20048;-36
2022/12/16 01:02:03;;;;;;;37.95;18.42;;;-0.20;99.90;;;;;;5042823;28;20540;-36
2022/12/16 01:04:29;;;;;;;30.63;16.45;;;-0.20;99.90;;;;;;5045854;28;20062;-36
2022/12/16 01:06:54;;;;;;;34.03;17.90;;;-0.20;99.90;;;;;;5035033;28;20600;-36
2022/12/16 01:09:20;;;;;;;28.38;16.00;;;-0.20;99.90;;;;;;5036677;28;20087;-37
2022/12/16 01:11:46;;;;;;;28.98;15.25;;;-0.20;99.90;;;;;;5030401;28;20053;-36
2022/12/16 01:14:12;;;;;;;24.95;14.32;;;-0.20;99.90;;;;;;5042128;28;20038;-36
2022/12/16 01:16:38;;;;;;;26.73;14.82;;;-0.20;99.90;;;;;;5035005;28;20493;-36
2022/12/16 01:19:03;;;;;;;34.85;18.98;;;-0.20;99.90;;;;;;5043125;28;20075;-35
2022/12/16 01:21:29;;;;;;;26.38;14.07;;;-0.20;99.90;;;;;;5034035;28;20124;-36
2022/12/16 01:23:54;;;;;;;34.78;17.60;;;-0.20;99.90;;;;;;5042697;28;20086;-36
2022/12/16 01:26:20;;;;;;;30.88;17.05;;;-0.20;99.90;;;;;;5034900;28;20091;-36
2022/12/16 01:28:49;;;;;;;36.63;18.60;;;-0.20;99.90;;;;;;5037122;28;20064;-35
2022/12/16 01:31:17;;;;;;;32.60;17.10;;;-0.20;99.90;;;;;;5045982;28;20091;-36
2022/12/16 01:33:43;;;;;;;28.25;15.27;;;-0.20;99.90;;;;;;5043943;28;20044;-36
2022/12/16 01:36:09;;;;;;;35.30;18.35;;;-0.30;99.90;;;;;;5042102;28;20041;-37
2022/12/16 01:38:35;;;;;;;35.10;17.50;;;-0.30;99.90;;;;;;5030481;28;20050;-34
2022/12/16 01:41:02;;;;;;;31.45;18.20;;;-0.30;99.90;;;;;;5017348;28;20103;-35
2022/12/16 01:43:32;;;;;;;28.05;15.70;;;-0.20;99.90;;;;;;5010313;28;20044;-35
2022/12/16 01:46:11;;;;;;;27.95;15.07;;;-0.20;99.90;;;;;;5016844;28;20042;-36
2022/12/16 01:49:05;;;;;;;27.92;14.40;;;-0.20;99.90;;;;;;5039529;28;20045;-35
2022/12/16 01:51:42;;;;;;;28.00;15.73;;;-0.20;99.90;;;;;;5041911;28;20041;-35
2022/12/16 01:54:25;;;;;;;28.88;14.88;;;-0.20;99.90;;;;;;5041108;28;20049;-35
2022/12/16 01:56:59;;;;;;;28.95;16.45;;;-0.20;99.90;;;;;;5037571;28;20152;-34
2022/12/16 01:59:29;;;;;;;27.42;13.50;;;-0.20;99.90;;;;;;5028539;28;20044;-37
2022/12/16 02:01:56;;;;;;;28.38;14.57;;;-0.20;99.90;;;;;;5040057;28;20037;-34
2022/12/16 02:04:22;;;;;;;30.55;15.25;;;-0.20;99.90;;;;;;5039917;28;20036;-37
2022/12/16 02:06:48;;;;;;;28.65;15.95;;;-0.20;99.90;;;;;;5041486;28;20045;-34
2022/12/16 02:09:14;;;;;;;31.88;15.65;;;-0.20;99.90;;;;;;5032259;28;20383;-35
2022/12/16 02:12:10;;;;;;;28.35;15.27;;;-0.20;99.90;;;;;;5026764;28;20037;-35
2022/12/16 02:15:20;;;;;;;29.20;15.75;;;-0.20;99.90;;;;;;5036320;28;20099;-33
2022/12/16 02:17:55;;;;;;;33.60;18.67;;;-0.20;99.90;;;;;;5038795;28;20490;-36
2022/12/16 02:20:39;;;;;;;34.22;17.45;;;-0.20;99.90;;;;;;5031125;28;20038;-35
2022/12/16 02:23:42;;;;;;;26.23;16.02;;;-0.20;99.90;;;;;;5012108;28;20060;-34
2022/12/16 02:26:30;;;;;;;32.50;16.63;;;-0.20;99.90;;;;;;5043139;28;20088;-36
2022/12/16 02:29:20;;;;;;;31.15;16.70;;;-0.20;99.90;;;;;;5039609;28;20044;-35
2022/12/16 02:32:08;;;;;;;29.15;16.27;;;-0.20;99.90;;;;;;5043328;28;20045;-34
2022/12/16 02:34:52;;;;;;;28.40;14.98;;;-0.30;99.90;;;;;;5041518;28;20506;-35
2022/12/16 02:37:39;;;;;;;30.20;16.35;;;-0.20;99.90;;;;;;5042394;28;20044;-33
2022/12/16 02:40:21;;;;;;;29.48;16.10;;;-0.30;99.90;;;;;;5019094;28;20129;-34
2022/12/16 02:42:52;;;;;;;27.42;15.00;;;-0.20;99.90;;;;;;5030279;28;20034;-36
2022/12/16 02:45:26;;;;;;;28.15;12.98;;;-0.30;99.90;;;;;;5037390;28;20043;-35
2022/12/16 02:47:52;;;;;;;29.83;14.23;;;-0.20;99.90;;;;;;5040515;28;20045;-35
2022/12/16 02:50:29;;;;;;;31.10;16.23;;;-0.30;99.90;;;;;;5044163;28;20087;-34
2022/12/16 02:52:56;;;;;;;30.80;16.48;;;-0.20;99.90;;;;;;5027283;28;20068;-37
2022/12/16 02:55:31;;;;;;;23.10;12.80;;;-0.20;99.90;;;;;;5029774;28;20203;-35
2022/12/16 02:58:18;;;;;;;29.50;16.45;;;-0.20;99.90;;;;;;5045676;28;20047;-35
2022/12/16 03:01:21;;;;;;;32.53;15.68;;;-0.20;99.90;;;;;;5041402;28;20037;-37
2022/12/16 03:03:58;;;;;;;31.70;16.58;;;-0.20;99.90;;;;;;5041153;28;20040;-34
2022/12/16 03:06:25;;;;;;;31.40;16.15;;;-0.20;99.90;;;;;;5043273;28;20485;-36
2022/12/16 03:08:56;;;;;;;26.00;14.70;;;-0.20;99.90;;;;;;5043102;28;20494;-34
2022/12/16 03:11:26;;;;;;;25.85;13.93;;;-0.20;99.90;;;;;;5032374;28;20072;-33
2022/12/16 03:13:54;;;;;;;24.98;13.85;;;-0.20;99.90;;;;;;5035427;28;20502;-34
2022/12/16 03:16:24;;;;;;;25.15;12.57;;;-0.20;99.90;;;;;;5028537;28;20041;-34
2022/12/16 03:18:55;;;;;;;25.25;12.98;;;-0.20;99.90;;;;;;5040220;28;20546;-36
2022/12/16 03:21:24;;;;;;;24.42;11.70;;;-0.10;99.90;;;;;;5036801;28;20665;-35
2022/12/16 03:23:56;;;;;;;25.25;13.38;;;-0.10;99.90;;;;;;5045824;28;20279;-35
2022/12/16 03:26:36;;;;;;;23.42;13.00;;;-0.10;99.90;;;;;;5032768;28;20053;-33
2022/12/16 03:29:37;;;;;;;24.65;12.63;;;-0.10;99.90;;;;;;5021821;28;20041;-34
2022/12/16 03:32:16;;;;;;;29.40;14.55;;;-0.10;99.90;;;;;;4990469;28;20523;-34
2022/12/16 03:34:58;;;;;;;25.17;12.60;;;-0.10;99.90;;;;;;5032238;28;20059;-34
2022/12/16 03:37:29;;;;;;;19.60;11.33;;;-0.10;99.90;;;;;;5035007;28;20106;-35
2022/12/16 03:39:59;;;;;;;31.05;13.70;;;-0.10;99.90;;;;;;5026358;28;20552;-35
2022/12/16 03:42:25;;;;;;;19.45;10.18;;;-0.10;99.90;;;;;;5009903;28;20040;-35
2022/12/16 03:44:51;;;;;;;25.88;13.20;;;-0.10;99.90;;;;;;5043458;28;20068;-35
2022/12/16 03:47:17;;;;;;;17.73;10.70;;;-0.10;99.90;;;;;;5036054;28;20064;-35
2022/12/16 03:49:42;;;;;;;21.90;10.95;;;0.00;99.90;;;;;;5031350;28;20038;-34
2022/12/16 03:52:08;;;;;;;16.83;9.50;;;-0.10;99.90;;;;;;5027254;28;20052;-35
2022/12/16 03:54:34;;;;;;;17.55;9.82;;;0.00;99.90;;;;;;5038387;28;20045;-35
2022/12/16 03:57:00;;;;;;;14.40;8.18;;;0.00;99.90;;;;;;5024989;28;20458;-35
2022/12/16 03:59:26;;;;;;;15.48;7.88;;;0.00;99.90;;;;;;5041764;28;20041;-35
2022/12/16 04:01:51;;;;;;;17.90;8.75;;;0.00;99.90;;;;;;5035621;28;20041;-35
2022/12/16 04:04:17;;;;;;;17.42;8.80;;;0.00;99.90;;;;;;5045101;28;20508;-35
2022/12/16 04:06:43;;;;;;;18.48;8.80;;;0.00;99.90;;;;;;5039282;28;20422;-36
2022/12/16 04:09:09;;;;;;;26.00;13.32;;;0.00;99.90;;;;;;5038405;28;20462;-36
2022/12/16 04:25:35;;;;;;;24.40;10.85;;;0.00;99.90;;;;;;5034312;28;20041;-40
2022/12/16 04:28:01;;;;;;;18.63;10.48;;;0.00;99.90;;;;;;5028021;28;20042;-36
2022/12/16 04:30:29;;;;;;;23.50;11.18;;;0.00;99.90;;;;;;5029783;28;20048;-40
